sensor_id;sensor_type;location;lat;lon;timestamp;pressure;altitude;pressure_sealevel;temperature
20092;BMP180;10205;49.678;6.560;2022-08-25T00:01:58;99985.00;;;29.10
20092;BMP180;10205;49.678;6.560;2022-08-25T00:04:26;99986.00;;;29.10
20092;BMP180;10205;49.678;6.560;2022-08-25T00:06:54;99985.00;;;29.10
20092;BMP180;10205;49.678;6.560;2022-08-25T00:09:25;99994.00;;;29.00
20092;BMP180;10205;49.678;6.560;2022-08-25T00:11:55;99987.00;;;29.00
20092;BMP180;10205;49.678;6.560;2022-08-25T00:14:31;99991.00;;;29.00
20092;BMP180;10205;49.678;6.560;2022-08-25T00:16:59;100006.00;;;28.90
20092;BMP180;10205;49.678;6.560;2022-08-25T00:19:31;100005.00;;;28.90
20092;BMP180;10205;49.678;6.560;2022-08-25T00:21:59;99991.00;;;28.90
20092;BMP180;10205;49.678;6.560;2022-08-25T00:24:28;99999.00;;;28.80
20092;BMP180;10205;49.678;6.560;2022-08-25T00:26:59;99990.00;;;28.80
20092;BMP180;10205;49.678;6.560;2022-08-25T00:29:29;99996.00;;;28.80
20092;BMP180;10205;49.678;6.560;2022-08-25T00:31:57;100000.00;;;28.70
20092;BMP180;10205;49.678;6.560;2022-08-25T00:34:28;99995.00;;;28.70
20092;BMP180;10205;49.678;6.560;2022-08-25T00:36:59;99995.00;;;28.70
20092;BMP180;10205;49.678;6.560;2022-08-25T00:39:27;99999.00;;;28.60
20092;BMP180;10205;49.678;6.560;2022-08-25T00:41:57;99998.00;;;28.60
20092;BMP180;10205;49.678;6.560;2022-08-25T00:44:28;99997.00;;;28.60
20092;BMP180;10205;49.678;6.560;2022-08-25T00:46:58;100005.00;;;28.50
20092;BMP180;10205;49.678;6.560;2022-08-25T00:49:32;100006.00;;;28.50
20092;BMP180;10205;49.678;6.560;2022-08-25T00:52:06;100010.00;;;28.40
20092;BMP180;10205;49.678;6.560;2022-08-25T00:54:38;100011.00;;;28.40
20092;BMP180;10205;49.678;6.560;2022-08-25T00:57:11;100013.00;;;28.40
20092;BMP180;10205;49.678;6.560;2022-08-25T00:59:40;100008.00;;;28.30
20092;BMP180;10205;49.678;6.560;2022-08-25T01:02:10;99999.00;;;28.30
20092;BMP180;10205;49.678;6.560;2022-08-25T01:04:38;100005.00;;;28.20
20092;BMP180;10205;49.678;6.560;2022-08-25T01:07:05;100005.00;;;28.20
20092;BMP180;10205;49.678;6.560;2022-08-25T01:09:33;100007.00;;;28.20
20092;BMP180;10205;49.678;6.560;2022-08-25T01:12:01;100007.00;;;28.10
20092;BMP180;10205;49.678;6.560;2022-08-25T01:14:31;100004.00;;;28.10
20092;BMP180;10205;49.678;6.560;2022-08-25T01:16:59;100010.00;;;28.10
20092;BMP180;10205;49.678;6.560;2022-08-25T01:19:28;100009.00;;;28.00
20092;BMP180;10205;49.678;6.560;2022-08-25T01:21:59;100008.00;;;28.00
20092;BMP180;10205;49.678;6.560;2022-08-25T01:24:34;100015.00;;;28.00
20092;BMP180;10205;49.678;6.560;2022-08-25T01:27:04;100017.00;;;27.90
20092;BMP180;10205;49.678;6.560;2022-08-25T01:29:32;100013.00;;;27.90
20092;BMP180;10205;49.678;6.560;2022-08-25T01:32:04;100012.00;;;27.80
20092;BMP180;10205;49.678;6.560;2022-08-25T01:34:35;100017.00;;;27.80
20092;BMP180;10205;49.678;6.560;2022-08-25T01:37:04;100029.00;;;27.70
20092;BMP180;10205;49.678;6.560;2022-08-25T01:39:33;100027.00;;;27.70
20092;BMP180;10205;49.678;6.560;2022-08-25T01:42:27;100024.00;;;27.70
20092;BMP180;10205;49.678;6.560;2022-08-25T01:44:54;100021.00;;;27.60
20092;BMP180;10205;49.678;6.560;2022-08-25T01:47:22;100025.00;;;27.60
20092;BMP180;10205;49.678;6.560;2022-08-25T01:49:50;100023.00;;;27.50
20092;BMP180;10205;49.678;6.560;2022-08-25T01:52:28;100027.00;;;27.50
20092;BMP180;10205;49.678;6.560;2022-08-25T01:54:55;100021.00;;;27.50
20092;BMP180;10205;49.678;6.560;2022-08-25T01:57:22;100019.00;;;27.40
20092;BMP180;10205;49.678;6.560;2022-08-25T01:59:50;100019.00;;;27.40
20092;BMP180;10205;49.678;6.560;2022-08-25T02:02:17;100027.00;;;27.40
20092;BMP180;10205;49.678;6.560;2022-08-25T02:04:44;100023.00;;;27.30
20092;BMP180;10205;49.678;6.560;2022-08-25T02:07:14;100025.00;;;27.30
20092;BMP180;10205;49.678;6.560;2022-08-25T02:09:43;100026.00;;;27.20
20092;BMP180;10205;49.678;6.560;2022-08-25T02:12:10;100023.00;;;27.20
20092;BMP180;10205;49.678;6.560;2022-08-25T02:14:37;100013.00;;;27.20
20092;BMP180;10205;49.678;6.560;2022-08-25T02:17:05;100021.00;;;27.10
20092;BMP180;10205;49.678;6.560;2022-08-25T02:19:32;100014.00;;;27.10
20092;BMP180;10205;49.678;6.560;2022-08-25T02:22:00;100013.00;;;27.00
20092;BMP180;10205;49.678;6.560;2022-08-25T02:24:27;100011.00;;;27.00
20092;BMP180;10205;49.678;6.560;2022-08-25T02:26:56;100005.00;;;27.00
20092;BMP180;10205;49.678;6.560;2022-08-25T02:29:24;100003.00;;;26.90
20092;BMP180;10205;49.678;6.560;2022-08-25T02:31:51;100002.00;;;26.90
20092;BMP180;10205;49.678;6.560;2022-08-25T02:34:18;100007.00;;;26.90
20092;BMP180;10205;49.678;6.560;2022-08-25T02:36:45;100002.00;;;26.80
20092;BMP180;10205;49.678;6.560;2022-08-25T02:39:13;100005.00;;;26.80
20092;BMP180;10205;49.678;6.560;2022-08-25T02:41:40;100008.00;;;26.70
20092;BMP180;10205;49.678;6.560;2022-08-25T02:44:09;99998.00;;;26.70
20092;BMP180;10205;49.678;6.560;2022-08-25T02:46:37;100002.00;;;26.70
20092;BMP180;10205;49.678;6.560;2022-08-25T02:49:07;100005.00;;;26.60
20092;BMP180;10205;49.678;6.560;2022-08-25T02:51:35;100008.00;;;26.60
20092;BMP180;10205;49.678;6.560;2022-08-25T02:54:04;100007.00;;;26.60
20092;BMP180;10205;49.678;6.560;2022-08-25T02:56:32;100003.00;;;26.50
20092;BMP180;10205;49.678;6.560;2022-08-25T02:59:00;99997.00;;;26.50
20092;BMP180;10205;49.678;6.560;2022-08-25T03:01:29;99995.00;;;26.40
20092;BMP180;10205;49.678;6.560;2022-08-25T03:03:57;99996.00;;;26.40
20092;BMP180;10205;49.678;6.560;2022-08-25T03:06:25;99993.00;;;26.40
20092;BMP180;10205;49.678;6.560;2022-08-25T03:08:53;99997.00;;;26.30
20092;BMP180;10205;49.678;6.560;2022-08-25T03:11:20;99996.00;;;26.30
20092;BMP180;10205;49.678;6.560;2022-08-25T03:13:48;99990.00;;;26.20
20092;BMP180;10205;49.678;6.560;2022-08-25T03:16:16;100001.00;;;26.20
20092;BMP180;10205;49.678;6.560;2022-08-25T03:18:45;99998.00;;;26.20
20092;BMP180;10205;49.678;6.560;2022-08-25T03:21:13;100006.00;;;26.20
20092;BMP180;10205;49.678;6.560;2022-08-25T03:23:43;100004.00;;;26.10
20092;BMP180;10205;49.678;6.560;2022-08-25T03:26:11;100009.00;;;26.10
20092;BMP180;10205;49.678;6.560;2022-08-25T03:28:56;99999.00;;;26.00
20092;BMP180;10205;49.678;6.560;2022-08-25T03:31:24;100001.00;;;26.00
20092;BMP180;10205;49.678;6.560;2022-08-25T03:33:53;100002.00;;;26.00
20092;BMP180;10205;49.678;6.560;2022-08-25T03:36:21;100003.00;;;25.90
20092;BMP180;10205;49.678;6.560;2022-08-25T03:38:48;100003.00;;;25.90
20092;BMP180;10205;49.678;6.560;2022-08-25T03:41:18;99999.00;;;25.80
20092;BMP180;10205;49.678;6.560;2022-08-25T03:43:46;99991.00;;;25.80
20092;BMP180;10205;49.678;6.560;2022-08-25T03:46:19;99991.00;;;25.80
20092;BMP180;10205;49.678;6.560;2022-08-25T03:48:47;99995.00;;;25.70
20092;BMP180;10205;49.678;6.560;2022-08-25T03:51:21;99986.00;;;25.70
20092;BMP180;10205;49.678;6.560;2022-08-25T03:53:48;99987.00;;;25.70
20092;BMP180;10205;49.678;6.560;2022-08-25T03:56:16;99988.00;;;25.60
20092;BMP180;10205;49.678;6.560;2022-08-25T03:58:44;99988.00;;;25.60
20092;BMP180;10205;49.678;6.560;2022-08-25T04:01:13;99992.00;;;25.60
20092;BMP180;10205;49.678;6.560;2022-08-25T04:03:40;99994.00;;;25.50
20092;BMP180;10205;49.678;6.560;2022-08-25T04:06:08;99993.00;;;25.50
20092;BMP180;10205;49.678;6.560;2022-08-25T04:08:38;99981.00;;;25.40
20092;BMP180;10205;49.678;6.560;2022-08-25T04:11:08;99985.00;;;25.40
20092;BMP180;10205;49.678;6.560;2022-08-25T04:13:36;99974.00;;;25.40
20092;BMP180;10205;49.678;6.560;2022-08-25T04:16:09;99985.00;;;25.40
20092;BMP180;10205;49.678;6.560;2022-08-25T04:18:37;99984.00;;;25.30
20092;BMP180;10205;49.678;6.560;2022-08-25T04:21:06;99995.00;;;25.30
20092;BMP180;10205;49.678;6.560;2022-08-25T04:23:36;99987.00;;;25.30
20092;BMP180;10205;49.678;6.560;2022-08-25T04:26:09;99983.00;;;25.20
20092;BMP180;10205;49.678;6.560;2022-08-25T04:28:36;99975.00;;;25.20
20092;BMP180;10205;49.678;6.560;2022-08-25T04:31:06;99976.00;;;25.20
20092;BMP180;10205;49.678;6.560;2022-08-25T04:33:34;99983.00;;;25.10
20092;BMP180;10205;49.678;6.560;2022-08-25T04:36:01;99989.00;;;25.10
20092;BMP180;10205;49.678;6.560;2022-08-25T04:38:28;99975.00;;;25.10
20092;BMP180;10205;49.678;6.560;2022-08-25T04:41:00;99977.00;;;25.00
20092;BMP180;10205;49.678;6.560;2022-08-25T04:43:29;99963.00;;;25.00
20092;BMP180;10205;49.678;6.560;2022-08-25T04:45:57;99967.00;;;25.00
20092;BMP180;10205;49.678;6.560;2022-08-25T04:48:25;99962.00;;;24.90
20092;BMP180;10205;49.678;6.560;2022-08-25T04:50:52;99966.00;;;24.90
20092;BMP180;10205;49.678;6.560;2022-08-25T04:53:19;99972.00;;;24.90
20092;BMP180;10205;49.678;6.560;2022-08-25T04:55:47;99965.00;;;24.80
20092;BMP180;10205;49.678;6.560;2022-08-25T04:58:16;99966.00;;;24.80
20092;BMP180;10205;49.678;6.560;2022-08-25T05:00:43;99963.00;;;24.80
20092;BMP180;10205;49.678;6.560;2022-08-25T05:03:11;99967.00;;;24.80
20092;BMP180;10205;49.678;6.560;2022-08-25T05:05:39;99961.00;;;24.70
20092;BMP180;10205;49.678;6.560;2022-08-25T05:08:06;99960.00;;;24.70
20092;BMP180;10205;49.678;6.560;2022-08-25T05:10:33;99959.00;;;24.60
20092;BMP180;10205;49.678;6.560;2022-08-25T05:13:04;99953.00;;;24.60
20092;BMP180;10205;49.678;6.560;2022-08-25T05:15:33;99949.00;;;24.60
20092;BMP180;10205;49.678;6.560;2022-08-25T05:18:23;99954.00;;;24.50
20092;BMP180;10205;49.678;6.560;2022-08-25T05:20:52;99943.00;;;24.50
20092;BMP180;10205;49.678;6.560;2022-08-25T05:23:21;99942.00;;;24.50
20092;BMP180;10205;49.678;6.560;2022-08-25T05:25:50;99933.00;;;24.50
20092;BMP180;10205;49.678;6.560;2022-08-25T05:28:18;99936.00;;;24.40
20092;BMP180;10205;49.678;6.560;2022-08-25T05:30:47;99939.00;;;24.40
20092;BMP180;10205;49.678;6.560;2022-08-25T05:33:15;99935.00;;;24.40
20092;BMP180;10205;49.678;6.560;2022-08-25T05:35:43;99936.00;;;24.30
20092;BMP180;10205;49.678;6.560;2022-08-25T05:38:11;99932.00;;;24.30
20092;BMP180;10205;49.678;6.560;2022-08-25T05:40:38;99937.00;;;24.30
20092;BMP180;10205;49.678;6.560;2022-08-25T05:43:05;99943.00;;;24.30
20092;BMP180;10205;49.678;6.560;2022-08-25T05:45:34;99935.00;;;24.20
20092;BMP180;10205;49.678;6.560;2022-08-25T05:48:03;99932.00;;;24.20
20092;BMP180;10205;49.678;6.560;2022-08-25T05:50:30;99932.00;;;24.20
20092;BMP180;10205;49.678;6.560;2022-08-25T05:52:57;99937.00;;;24.20
20092;BMP180;10205;49.678;6.560;2022-08-25T05:55:24;99929.00;;;24.10
20092;BMP180;10205;49.678;6.560;2022-08-25T05:57:51;99943.00;;;24.10
20092;BMP180;10205;49.678;6.560;2022-08-25T06:00:19;99933.00;;;24.10
20092;BMP180;10205;49.678;6.560;2022-08-25T06:02:46;99925.00;;;24.10
20092;BMP180;10205;49.678;6.560;2022-08-25T06:05:18;99936.00;;;24.10
20092;BMP180;10205;49.678;6.560;2022-08-25T06:07:49;99933.00;;;24.00
20092;BMP180;10205;49.678;6.560;2022-08-25T06:10:17;99934.00;;;24.00
20092;BMP180;10205;49.678;6.560;2022-08-25T06:12:48;99934.00;;;24.00
20092;BMP180;10205;49.678;6.560;2022-08-25T06:15:18;99926.00;;;24.00
20092;BMP180;10205;49.678;6.560;2022-08-25T06:17:46;99932.00;;;23.90
20092;BMP180;10205;49.678;6.560;2022-08-25T06:20:18;99931.00;;;23.90
20092;BMP180;10205;49.678;6.560;2022-08-25T06:22:46;99925.00;;;23.90
20092;BMP180;10205;49.678;6.560;2022-08-25T06:25:17;99927.00;;;23.90
20092;BMP180;10205;49.678;6.560;2022-08-25T06:27:45;99935.00;;;23.90
20092;BMP180;10205;49.678;6.560;2022-08-25T06:30:16;99925.00;;;23.80
20092;BMP180;10205;49.678;6.560;2022-08-25T06:32:45;99928.00;;;23.80
20092;BMP180;10205;49.678;6.560;2022-08-25T06:35:18;99923.00;;;23.80
20092;BMP180;10205;49.678;6.560;2022-08-25T06:37:46;99927.00;;;23.70
20092;BMP180;10205;49.678;6.560;2022-08-25T06:40:15;99927.00;;;23.70
20092;BMP180;10205;49.678;6.560;2022-08-25T06:42:45;99930.00;;;23.70
20092;BMP180;10205;49.678;6.560;2022-08-25T06:45:13;99927.00;;;23.70
20092;BMP180;10205;49.678;6.560;2022-08-25T06:47:40;99927.00;;;23.70
20092;BMP180;10205;49.678;6.560;2022-08-25T06:50:08;99922.00;;;23.70
20092;BMP180;10205;49.678;6.560;2022-08-25T06:52:37;99920.00;;;23.70
20092;BMP180;10205;49.678;6.560;2022-08-25T06:55:05;99925.00;;;23.70
20092;BMP180;10205;49.678;6.560;2022-08-25T06:57:32;99918.00;;;23.70
20092;BMP180;10205;49.678;6.560;2022-08-25T07:00:00;99918.00;;;23.80
20092;BMP180;10205;49.678;6.560;2022-08-25T07:02:27;99927.00;;;23.80
20092;BMP180;10205;49.678;6.560;2022-08-25T07:04:54;99920.00;;;23.80
20092;BMP180;10205;49.678;6.560;2022-08-25T07:07:22;99917.00;;;23.90
20092;BMP180;10205;49.678;6.560;2022-08-25T07:09:50;99916.00;;;23.90
20092;BMP180;10205;49.678;6.560;2022-08-25T07:12:17;99921.00;;;23.90
20092;BMP180;10205;49.678;6.560;2022-08-25T07:14:45;99926.00;;;23.90
20092;BMP180;10205;49.678;6.560;2022-08-25T07:17:12;99920.00;;;24.00
20092;BMP180;10205;49.678;6.560;2022-08-25T07:19:39;99922.00;;;24.00
20092;BMP180;10205;49.678;6.560;2022-08-25T07:22:06;99922.00;;;24.00
20092;BMP180;10205;49.678;6.560;2022-08-25T07:24:33;99921.00;;;24.10
20092;BMP180;10205;49.678;6.560;2022-08-25T07:27:02;99921.00;;;24.10
20092;BMP180;10205;49.678;6.560;2022-08-25T07:29:30;99927.00;;;24.10
20092;BMP180;10205;49.678;6.560;2022-08-25T07:31:59;99925.00;;;24.20
20092;BMP180;10205;49.678;6.560;2022-08-25T07:34:27;99921.00;;;24.20
20092;BMP180;10205;49.678;6.560;2022-08-25T07:37:11;99919.00;;;24.30
20092;BMP180;10205;49.678;6.560;2022-08-25T07:39:38;99916.00;;;24.30
20092;BMP180;10205;49.678;6.560;2022-08-25T07:42:07;99907.00;;;24.40
20092;BMP180;10205;49.678;6.560;2022-08-25T07:44:34;99919.00;;;24.40
20092;BMP180;10205;49.678;6.560;2022-08-25T07:47:02;99917.00;;;24.50
20092;BMP180;10205;49.678;6.560;2022-08-25T07:49:29;99914.00;;;24.50
20092;BMP180;10205;49.678;6.560;2022-08-25T07:51:57;99910.00;;;24.60
20092;BMP180;10205;49.678;6.560;2022-08-25T07:54:24;99906.00;;;24.70
20092;BMP180;10205;49.678;6.560;2022-08-25T07:56:52;99897.00;;;24.80
20092;BMP180;10205;49.678;6.560;2022-08-25T07:59:21;99888.00;;;24.80
20092;BMP180;10205;49.678;6.560;2022-08-25T08:01:49;99894.00;;;24.90
20092;BMP180;10205;49.678;6.560;2022-08-25T08:04:16;99901.00;;;25.00
20092;BMP180;10205;49.678;6.560;2022-08-25T08:06:43;99904.00;;;25.10
20092;BMP180;10205;49.678;6.560;2022-08-25T08:09:11;99898.00;;;25.20
20092;BMP180;10205;49.678;6.560;2022-08-25T08:11:38;99894.00;;;25.30
20092;BMP180;10205;49.678;6.560;2022-08-25T08:14:10;99896.00;;;25.40
20092;BMP180;10205;49.678;6.560;2022-08-25T08:16:40;99894.00;;;25.50
20092;BMP180;10205;49.678;6.560;2022-08-25T08:19:07;99890.00;;;25.60
20092;BMP180;10205;49.678;6.560;2022-08-25T08:21:35;99891.00;;;25.70
20092;BMP180;10205;49.678;6.560;2022-08-25T08:24:03;99883.00;;;25.70
20092;BMP180;10205;49.678;6.560;2022-08-25T08:26:31;99881.00;;;25.80
20092;BMP180;10205;49.678;6.560;2022-08-25T08:28:59;99885.00;;;25.90
20092;BMP180;10205;49.678;6.560;2022-08-25T08:31:27;99880.00;;;26.00
20092;BMP180;10205;49.678;6.560;2022-08-25T08:33:57;99878.00;;;26.10
20092;BMP180;10205;49.678;6.560;2022-08-25T08:36:25;99868.00;;;26.20
20092;BMP180;10205;49.678;6.560;2022-08-25T08:38:53;99862.00;;;26.40
20092;BMP180;10205;49.678;6.560;2022-08-25T08:41:45;99862.00;;;26.50
20092;BMP180;10205;49.678;6.560;2022-08-25T08:44:47;99862.00;;;26.60
20092;BMP180;10205;49.678;6.560;2022-08-25T08:47:30;99860.00;;;26.70
20092;BMP180;10205;49.678;6.560;2022-08-25T08:50:09;99847.00;;;26.80
20092;BMP180;10205;49.678;6.560;2022-08-25T08:52:43;99852.00;;;27.00
20092;BMP180;10205;49.678;6.560;2022-08-25T08:55:24;99849.00;;;27.10
20092;BMP180;10205;49.678;6.560;2022-08-25T08:57:56;99852.00;;;27.20
20092;BMP180;10205;49.678;6.560;2022-08-25T09:00:26;99854.00;;;27.40
20092;BMP180;10205;49.678;6.560;2022-08-25T09:03:02;99849.00;;;27.50
20092;BMP180;10205;49.678;6.560;2022-08-25T09:05:42;99853.00;;;27.60
20092;BMP180;10205;49.678;6.560;2022-08-25T09:08:12;99853.00;;;27.80
20092;BMP180;10205;49.678;6.560;2022-08-25T09:10:53;99847.00;;;27.90
20092;BMP180;10205;49.678;6.560;2022-08-25T09:13:40;99855.00;;;28.00
20092;BMP180;10205;49.678;6.560;2022-08-25T09:16:19;99845.00;;;28.20
20092;BMP180;10205;49.678;6.560;2022-08-25T09:19:24;99841.00;;;28.30
20092;BMP180;10205;49.678;6.560;2022-08-25T09:22:07;99846.00;;;28.40
20092;BMP180;10205;49.678;6.560;2022-08-25T09:24:53;99840.00;;;28.50
20092;BMP180;10205;49.678;6.560;2022-08-25T09:27:31;99837.00;;;28.70
20092;BMP180;10205;49.678;6.560;2022-08-25T09:30:08;99833.00;;;28.80
20092;BMP180;10205;49.678;6.560;2022-08-25T09:32:41;99838.00;;;28.90
20092;BMP180;10205;49.678;6.560;2022-08-25T09:35:18;99830.00;;;29.10
20092;BMP180;10205;49.678;6.560;2022-08-25T09:38:04;99826.00;;;29.20
20092;BMP180;10205;49.678;6.560;2022-08-25T09:40:37;99821.00;;;29.30
20092;BMP180;10205;49.678;6.560;2022-08-25T09:43:21;99833.00;;;29.40
20092;BMP180;10205;49.678;6.560;2022-08-25T09:45:58;99825.00;;;29.60
20092;BMP180;10205;49.678;6.560;2022-08-25T09:48:28;99822.00;;;29.70
20092;BMP180;10205;49.678;6.560;2022-08-25T09:51:00;99806.00;;;29.80
20092;BMP180;10205;49.678;6.560;2022-08-25T09:53:29;99805.00;;;29.90
20092;BMP180;10205;49.678;6.560;2022-08-25T09:56:02;99800.00;;;30.00
20092;BMP180;10205;49.678;6.560;2022-08-25T09:58:32;99800.00;;;30.10
20092;BMP180;10205;49.678;6.560;2022-08-25T10:01:10;99803.00;;;30.30
20092;BMP180;10205;49.678;6.560;2022-08-25T10:03:59;99796.00;;;30.40
20092;BMP180;10205;49.678;6.560;2022-08-25T10:06:42;99791.00;;;30.50
20092;BMP180;10205;49.678;6.560;2022-08-25T10:09:24;99794.00;;;30.60
20092;BMP180;10205;49.678;6.560;2022-08-25T10:11:55;99791.00;;;30.70
20092;BMP180;10205;49.678;6.560;2022-08-25T10:14:32;99792.00;;;30.80
20092;BMP180;10205;49.678;6.560;2022-08-25T10:17:18;99785.00;;;30.90
20092;BMP180;10205;49.678;6.560;2022-08-25T10:19:50;99779.00;;;31.00
20092;BMP180;10205;49.678;6.560;2022-08-25T10:22:25;99778.00;;;31.10
20092;BMP180;10205;49.678;6.560;2022-08-25T10:24:59;99769.00;;;31.20
20092;BMP180;10205;49.678;6.560;2022-08-25T10:27:37;99773.00;;;31.30
20092;BMP180;10205;49.678;6.560;2022-08-25T10:30:18;99767.00;;;31.50
20092;BMP180;10205;49.678;6.560;2022-08-25T10:33:10;99753.00;;;31.60
20092;BMP180;10205;49.678;6.560;2022-08-25T10:35:53;99756.00;;;31.70
20092;BMP180;10205;49.678;6.560;2022-08-25T10:38:38;99756.00;;;31.80
20092;BMP180;10205;49.678;6.560;2022-08-25T10:41:37;99750.00;;;31.90
20092;BMP180;10205;49.678;6.560;2022-08-25T10:44:19;99739.00;;;32.00
20092;BMP180;10205;49.678;6.560;2022-08-25T10:47:48;99737.00;;;32.10
20092;BMP180;10205;49.678;6.560;2022-08-25T10:50:27;99732.00;;;32.30
20092;BMP180;10205;49.678;6.560;2022-08-25T10:53:17;99736.00;;;32.40
20092;BMP180;10205;49.678;6.560;2022-08-25T10:56:06;99734.00;;;32.50
20092;BMP180;10205;49.678;6.560;2022-08-25T10:59:05;99728.00;;;32.60
20092;BMP180;10205;49.678;6.560;2022-08-25T11:01:50;99731.00;;;32.70
20092;BMP180;10205;49.678;6.560;2022-08-25T11:04:24;99715.00;;;32.80
20092;BMP180;10205;49.678;6.560;2022-08-25T11:06:59;99717.00;;;32.90
20092;BMP180;10205;49.678;6.560;2022-08-25T11:09:34;99720.00;;;33.10
20092;BMP180;10205;49.678;6.560;2022-08-25T11:12:10;99723.00;;;33.20
20092;BMP180;10205;49.678;6.560;2022-08-25T11:14:48;99717.00;;;33.30
20092;BMP180;10205;49.678;6.560;2022-08-25T11:17:23;99711.00;;;33.40
20092;BMP180;10205;49.678;6.560;2022-08-25T11:19:55;99712.00;;;33.50
20092;BMP180;10205;49.678;6.560;2022-08-25T11:22:29;99705.00;;;33.60
20092;BMP180;10205;49.678;6.560;2022-08-25T11:25:06;99707.00;;;33.70
20092;BMP180;10205;49.678;6.560;2022-08-25T11:27:46;99699.00;;;33.70
20092;BMP180;10205;49.678;6.560;2022-08-25T11:30:18;99697.00;;;33.80
20092;BMP180;10205;49.678;6.560;2022-08-25T11:32:50;99690.00;;;33.90
20092;BMP180;10205;49.678;6.560;2022-08-25T11:35:26;99690.00;;;34.00
20092;BMP180;10205;49.678;6.560;2022-08-25T11:38:16;99690.00;;;34.00
20092;BMP180;10205;49.678;6.560;2022-08-25T11:41:06;99691.00;;;34.10
20092;BMP180;10205;49.678;6.560;2022-08-25T11:44:04;99690.00;;;34.10
20092;BMP180;10205;49.678;6.560;2022-08-25T11:46:55;99687.00;;;34.20
20092;BMP180;10205;49.678;6.560;2022-08-25T11:49:49;99682.00;;;34.30
20092;BMP180;10205;49.678;6.560;2022-08-25T11:52:47;99677.00;;;34.30
20092;BMP180;10205;49.678;6.560;2022-08-25T11:55:26;99674.00;;;34.30
20092;BMP180;10205;49.678;6.560;2022-08-25T11:58:33;99666.00;;;34.30
20092;BMP180;10205;49.678;6.560;2022-08-25T12:01:08;99670.00;;;34.40
20092;BMP180;10205;49.678;6.560;2022-08-25T12:04:10;99660.00;;;34.50
20092;BMP180;10205;49.678;6.560;2022-08-25T12:07:23;99669.00;;;34.60
20092;BMP180;10205;49.678;6.560;2022-08-25T12:10:19;99668.00;;;34.70
20092;BMP180;10205;49.678;6.560;2022-08-25T12:13:04;99662.00;;;34.80
20092;BMP180;10205;49.678;6.560;2022-08-25T12:15:59;99667.00;;;34.90
20092;BMP180;10205;49.678;6.560;2022-08-25T12:18:42;99669.00;;;35.00
20092;BMP180;10205;49.678;6.560;2022-08-25T12:21:29;99658.00;;;35.00
20092;BMP180;10205;49.678;6.560;2022-08-25T12:24:14;99647.00;;;35.10
20092;BMP180;10205;49.678;6.560;2022-08-25T12:26:51;99645.00;;;35.20
20092;BMP180;10205;49.678;6.560;2022-08-25T12:29:30;99643.00;;;35.30
20092;BMP180;10205;49.678;6.560;2022-08-25T12:35:26;99653.00;;;35.50
20092;BMP180;10205;49.678;6.560;2022-08-25T12:38:03;99640.00;;;35.60
20092;BMP180;10205;49.678;6.560;2022-08-25T12:40:37;99638.00;;;35.60
20092;BMP180;10205;49.678;6.560;2022-08-25T12:43:21;99633.00;;;35.70
20092;BMP180;10205;49.678;6.560;2022-08-25T12:45:51;99642.00;;;35.70
20092;BMP180;10205;49.678;6.560;2022-08-25T12:48:56;99637.00;;;35.80
20092;BMP180;10205;49.678;6.560;2022-08-25T12:51:27;99637.00;;;35.90
20092;BMP180;10205;49.678;6.560;2022-08-25T12:54:18;99638.00;;;35.90
20092;BMP180;10205;49.678;6.560;2022-08-25T12:56:53;99638.00;;;35.90
20092;BMP180;10205;49.678;6.560;2022-08-25T12:59:32;99638.00;;;35.90
20092;BMP180;10205;49.678;6.560;2022-08-25T13:02:27;99630.00;;;35.80
20092;BMP180;10205;49.678;6.560;2022-08-25T13:05:40;99631.00;;;35.90
20092;BMP180;10205;49.678;6.560;2022-08-25T13:11:40;99629.00;;;35.90
20092;BMP180;10205;49.678;6.560;2022-08-25T13:14:21;99629.00;;;36.00
20092;BMP180;10205;49.678;6.560;2022-08-25T13:16:54;99620.00;;;36.00
20092;BMP180;10205;49.678;6.560;2022-08-25T13:19:23;99625.00;;;36.10
20092;BMP180;10205;49.678;6.560;2022-08-25T13:21:51;99613.00;;;36.20
20092;BMP180;10205;49.678;6.560;2022-08-25T13:24:23;99618.00;;;36.30
20092;BMP180;10205;49.678;6.560;2022-08-25T13:26:55;99617.00;;;36.20
20092;BMP180;10205;49.678;6.560;2022-08-25T13:29:27;99611.00;;;36.20
20092;BMP180;10205;49.678;6.560;2022-08-25T13:31:59;99607.00;;;36.20
20092;BMP180;10205;49.678;6.560;2022-08-25T13:34:29;99601.00;;;36.20
20092;BMP180;10205;49.678;6.560;2022-08-25T13:37:06;99590.00;;;36.20
20092;BMP180;10205;49.678;6.560;2022-08-25T13:40:08;99598.00;;;36.20
20092;BMP180;10205;49.678;6.560;2022-08-25T13:42:38;99593.00;;;36.20
20092;BMP180;10205;49.678;6.560;2022-08-25T13:45:08;99590.00;;;36.20
20092;BMP180;10205;49.678;6.560;2022-08-25T13:47:40;99590.00;;;36.20
20092;BMP180;10205;49.678;6.560;2022-08-25T13:50:26;99596.00;;;36.20
20092;BMP180;10205;49.678;6.560;2022-08-25T13:52:57;99592.00;;;36.20
20092;BMP180;10205;49.678;6.560;2022-08-25T13:55:33;99590.00;;;36.20
20092;BMP180;10205;49.678;6.560;2022-08-25T13:58:05;99592.00;;;36.20
20092;BMP180;10205;49.678;6.560;2022-08-25T14:00:43;99598.00;;;36.20
20092;BMP180;10205;49.678;6.560;2022-08-25T14:03:30;99586.00;;;36.30
20092;BMP180;10205;49.678;6.560;2022-08-25T14:06:06;99581.00;;;36.30
20092;BMP180;10205;49.678;6.560;2022-08-25T14:08:37;99580.00;;;36.40
20092;BMP180;10205;49.678;6.560;2022-08-25T14:11:13;99575.00;;;36.40
20092;BMP180;10205;49.678;6.560;2022-08-25T14:13:43;99580.00;;;36.40
20092;BMP180;10205;49.678;6.560;2022-08-25T14:16:21;99573.00;;;36.40
20092;BMP180;10205;49.678;6.560;2022-08-25T14:18:52;99566.00;;;36.50
20092;BMP180;10205;49.678;6.560;2022-08-25T14:21:24;99574.00;;;36.50
20092;BMP180;10205;49.678;6.560;2022-08-25T14:23:52;99565.00;;;36.40
20092;BMP180;10205;49.678;6.560;2022-08-25T14:26:21;99567.00;;;36.50
20092;BMP180;10205;49.678;6.560;2022-08-25T14:28:49;99556.00;;;36.40
20092;BMP180;10205;49.678;6.560;2022-08-25T14:31:23;99555.00;;;36.40
20092;BMP180;10205;49.678;6.560;2022-08-25T14:33:56;99560.00;;;36.40
20092;BMP180;10205;49.678;6.560;2022-08-25T14:36:25;99565.00;;;36.40
20092;BMP180;10205;49.678;6.560;2022-08-25T14:38:55;99562.00;;;36.30
20092;BMP180;10205;49.678;6.560;2022-08-25T14:41:24;99568.00;;;36.30
20092;BMP180;10205;49.678;6.560;2022-08-25T14:43:53;99560.00;;;36.40
20092;BMP180;10205;49.678;6.560;2022-08-25T14:46:24;99562.00;;;36.40
20092;BMP180;10205;49.678;6.560;2022-08-25T14:48:56;99553.00;;;36.40